Time;durP1;ratioP1;P1;durP2;ratioP2;P2;SDS_P1;SDS_P2;PMS_P1;PMS_P2;Temp;Humidity;BMP_temperature;BMP_pressure;BME280_temperature;BME280_humidity;BME280_pressure;Samples;Min_cycle;Max_cycle;Signal;HPM_P1;HPM_P2
2023/03/13 00:00:28;;;;;;;;;;;;;;;5.65;88.41;97888.59;5057142;28;19956;-83
2023/03/13 00:02:53;;;;;;;;;;;;;;;5.56;88.48;97882.88;5056353;28;19933;-83
2023/03/13 00:05:18;;;;;;;;;;;;;;;5.63;88.03;97885.38;5059185;28;19928;-83
2023/03/13 00:07:43;;;;;;;;;;;;;;;5.65;88.35;97878.00;5076282;28;19949;-82
2023/03/13 00:10:09;;;;;;;;;;;;;;;5.65;88.44;97873.50;5060551;28;19984;-83
2023/03/13 00:12:34;;;;;;;;;;;;;;;5.61;88.18;97864.44;5065128;28;20003;-83
2023/03/13 00:14:59;;;;;;;;;;;;;;;5.58;88.33;97870.22;5086235;28;19925;-83
2023/03/13 00:17:24;;;;;;;;;;;;;;;5.69;88.04;97858.75;5081457;28;19920;-83
2023/03/13 00:19:50;;;;;;;;;;;;;;;5.59;88.20;97861.22;5075863;28;19931;-83
2023/03/13 00:22:15;;;;;;;;;;;;;;;5.61;88.57;97853.88;5060077;28;19934;-82
2023/03/13 00:24:40;;;;;;;;;;;;;;;5.61;87.97;97847.75;5076667;28;20327;-82
2023/03/13 00:27:05;;;;;;;;;;;;;;;5.61;87.97;97843.28;5068931;28;19920;-83
2023/03/13 00:29:32;;;;;;;;;;;;;;;5.63;87.85;97838.53;5076677;28;19935;-83
2023/03/13 00:31:57;;;;;;;;;;;;;;;5.64;88.11;97842.78;5075164;28;19971;-82
2023/03/13 00:34:25;;;;;;;;;;;;;;;5.65;88.63;97844.41;5077620;28;19928;-83
2023/03/13 00:36:50;;;;;;;;;;;;;;;5.59;88.13;97841.91;5062347;28;20359;-83
2023/03/13 00:39:16;;;;;;;;;;;;;;;5.63;88.80;97838.53;5070000;28;19956;-82
2023/03/13 00:41:41;;;;;;;;;;;;;;;5.62;87.77;97838.75;5063833;28;20362;-81
2023/03/13 00:44:07;;;;;;;;;;;;;;;5.61;88.23;97832.69;5040787;28;20053;-83
2023/03/13 00:46:32;;;;;;;;;;;;;;;5.59;88.69;97823.38;5066147;28;19935;-82
2023/03/13 00:48:57;;;;;;;;;;;;;;;5.66;87.84;97811.56;5068991;28;19921;-83
2023/03/13 00:51:25;;;;;;;;;;;;;;;5.65;87.69;97817.91;5061773;28;19928;-83
2023/03/13 00:53:50;;;;;;;;;;;;;;;5.63;88.84;97811.25;5060995;28;19921;-82
2023/03/13 00:56:16;;;;;;;;;;;;;;;5.65;87.89;97809.19;5061561;28;19971;-82
2023/03/13 00:58:42;;;;;;;;;;;;;;;5.63;88.50;97809.44;5059946;28;19932;-82
2023/03/13 01:01:19;;;;;;;;;;;;;;;5.67;87.94;97804.44;5063657;28;20411;-82
2023/03/13 01:03:46;;;;;;;;;;;;;;;5.66;87.95;97789.59;5064507;28;19924;-82
2023/03/13 01:06:12;;;;;;;;;;;;;;;5.67;88.31;97792.00;5064425;28;19929;-83
2023/03/13 01:08:38;;;;;;;;;;;;;;;5.66;88.02;97782.44;5060598;28;20651;-83
2023/03/13 01:11:14;;;;;;;;;;;;;;;5.68;87.83;97787.53;5064713;28;19938;-82
2023/03/13 01:13:39;;;;;;;;;;;;;;;5.70;87.75;97780.13;5076656;28;19928;-83
2023/03/13 01:16:10;;;;;;;;;;;;;;;5.72;88.04;97773.53;5076493;28;19916;-82
2023/03/13 01:18:36;;;;;;;;;;;;;;;5.73;87.78;97775.16;5057842;28;19953;-83
2023/03/13 01:21:02;;;;;;;;;;;;;;;5.67;88.53;97770.03;5074995;28;20337;-83
2023/03/13 01:23:27;;;;;;;;;;;;;;;5.70;88.04;97758.97;5076635;28;19916;-83
2023/03/13 01:25:55;;;;;;;;;;;;;;;5.73;87.48;97767.22;5076569;28;19927;-82
2023/03/13 01:28:21;;;;;;;;;;;;;;;5.78;88.04;97746.09;5074581;28;20368;-82
2023/03/13 01:30:47;;;;;;;;;;;;;;;5.78;87.58;97747.94;5089393;28;19950;-82
2023/03/13 01:33:12;;;;;;;;;;;;;;;5.76;88.20;97745.56;5088915;28;19975;-83
2023/03/13 01:35:37;;;;;;;;;;;;;;;5.75;88.42;97746.59;5074380;28;19932;-82
2023/03/13 01:38:02;;;;;;;;;;;;;;;5.75;88.22;97735.19;5075211;28;20012;-82
2023/03/13 01:40:28;;;;;;;;;;;;;;;5.81;88.93;97727.06;5061752;28;19935;-82
2023/03/13 01:42:54;;;;;;;;;;;;;;;5.73;88.41;97722.19;5085810;28;19921;-82
2023/03/13 01:45:38;;;;;;;;;;;;;;;5.82;88.47;97723.38;5062425;28;20640;-82
2023/03/13 01:48:04;;;;;;;;;;;;;;;5.76;88.44;97712.97;5059547;28;19916;-82
2023/03/13 01:50:29;;;;;;;;;;;;;;;5.77;87.80;97715.38;5057669;28;19928;-83
2023/03/13 01:52:54;;;;;;;;;;;;;;;5.76;88.62;97716.44;5060231;28;19982;-82
2023/03/13 01:55:19;;;;;;;;;;;;;;;5.73;89.21;97706.31;5056552;28;19967;-81
2023/03/13 01:57:50;;;;;;;;;;;;;;;5.80;87.95;97706.94;5059681;28;19932;-82
2023/03/13 02:00:18;;;;;;;;;;;;;;;5.80;88.65;97693.72;5064722;28;19928;-82
2023/03/13 02:02:49;;;;;;;;;;;;;;;5.80;88.48;97699.00;5058300;28;20273;-82
2023/03/13 02:05:15;;;;;;;;;;;;;;;5.81;89.11;97689.22;5057123;28;20232;-82
2023/03/13 02:08:02;;;;;;;;;;;;;;;5.81;88.39;97686.56;5057338;28;19955;-83
2023/03/13 02:10:28;;;;;;;;;;;;;;;5.83;88.51;97685.25;5055379;28;20345;-82
2023/03/13 02:12:54;;;;;;;;;;;;;;;5.82;88.73;97678.38;5059011;28;20418;-83
2023/03/13 02:15:21;;;;;;;;;;;;;;;5.86;88.94;97662.81;5039881;28;19928;-82
2023/03/13 02:17:47;;;;;;;;;;;;;;;5.83;88.60;97666.72;5059602;28;19947;-81
2023/03/13 02:20:13;;;;;;;;;;;;;;;5.90;88.67;97661.28;5065183;28;20350;-82
2023/03/13 02:22:38;;;;;;;;;;;;;;;5.86;88.32;97650.38;5058276;28;19950;-82
2023/03/13 02:25:22;;;;;;;;;;;;;;;5.90;89.00;97640.91;5059565;28;20644;-82
2023/03/13 02:27:49;;;;;;;;;;;;;;;5.89;89.32;97647.25;5059379;28;19924;-83
2023/03/13 02:30:15;;;;;;;;;;;;;;;5.87;89.41;97624.72;5041187;28;19971;-82
2023/03/13 02:32:40;;;;;;;;;;;;;;;5.86;88.64;97621.25;5057403;28;19952;-82
2023/03/13 02:35:10;;;;;;;;;;;;;;;5.91;89.30;97623.97;5039810;28;19928;-82
2023/03/13 02:37:35;;;;;;;;;;;;;;;5.91;89.53;97623.16;5041489;28;19971;-82
2023/03/13 02:40:04;;;;;;;;;;;;;;;5.91;89.82;97618.69;5059895;28;19990;-82
2023/03/13 02:42:30;;;;;;;;;;;;;;;5.95;88.73;97619.78;5079997;28;20066;-82
2023/03/13 02:44:55;;;;;;;;;;;;;;;5.98;88.89;97597.28;5063483;28;20468;-83
2023/03/13 02:47:21;;;;;;;;;;;;;;;5.97;89.49;97611.56;5053717;28;19936;-82
2023/03/13 02:49:47;;;;;;;;;;;;;;;5.96;89.76;97607.34;5055374;28;19959;-82
2023/03/13 02:52:18;;;;;;;;;;;;;;;5.96;89.30;97592.22;5053649;28;19924;-82
2023/03/13 02:54:46;;;;;;;;;;;;;;;5.95;89.66;97592.47;5059091;28;19928;-82
2023/03/13 02:57:11;;;;;;;;;;;;;;;5.96;89.21;97594.09;5058764;28;20042;-83
2023/03/13 02:59:36;;;;;;;;;;;;;;;6.01;89.14;97587.00;5054966;28;19990;-82
2023/03/13 03:02:03;;;;;;;;;;;;;;;6.01;89.37;97571.09;5057176;28;19943;-82
2023/03/13 03:04:28;;;;;;;;;;;;;;;6.01;89.42;97565.81;5071885;28;19980;-83
2023/03/13 03:06:53;;;;;;;;;;;;;;;5.97;89.64;97558.59;5068872;28;19965;-83
2023/03/13 03:09:19;;;;;;;;;;;;;;;6.06;89.14;97557.09;5074775;28;19927;-82
2023/03/13 03:11:45;;;;;;;;;;;;;;;6.01;89.83;97559.69;5051217;28;19928;-82
2023/03/13 03:14:10;;;;;;;;;;;;;;;6.00;90.31;97543.03;5072436;28;19959;-81
2023/03/13 03:16:36;;;;;;;;;;;;;;;6.08;89.27;97536.47;5075429;28;20245;-82
2023/03/13 03:19:02;;;;;;;;;;;;;;;6.09;89.95;97527.47;5076143;28;19923;-82
2023/03/13 03:21:27;;;;;;;;;;;;;;;6.03;89.78;97520.53;5075168;28;19956;-82
2023/03/13 03:23:52;;;;;;;;;;;;;;;6.01;90.64;97519.97;5073091;28;19916;-83
2023/03/13 03:26:18;;;;;;;;;;;;;;;6.07;90.74;97512.88;5075106;28;20372;-83
2023/03/13 03:28:43;;;;;;;;;;;;;;;6.11;90.44;97503.38;5056090;28;19920;-82
2023/03/13 03:31:09;;;;;;;;;;;;;;;6.10;90.78;97485.88;5066681;28;19920;-82
2023/03/13 03:33:35;;;;;;;;;;;;;;;6.14;90.91;97487.78;5062823;28;20324;-83
2023/03/13 03:36:05;;;;;;;;;;;;;;;6.07;91.50;97495.94;5071521;28;19931;-82
2023/03/13 03:38:30;;;;;;;;;;;;;;;6.10;91.68;97486.69;5067154;28;20577;-82
2023/03/13 03:40:56;;;;;;;;;;;;;;;6.07;91.96;97468.66;5048534;28;19979;-83
2023/03/13 03:43:21;;;;;;;;;;;;;;;6.10;92.52;97467.34;5072495;28;19924;-83
2023/03/13 03:45:46;;;;;;;;;;;;;;;6.05;92.76;97468.09;5069531;28;19925;-82
2023/03/13 03:48:11;;;;;;;;;;;;;;;6.09;92.70;97450.66;5069128;28;20408;-83
2023/03/13 03:50:36;;;;;;;;;;;;;;;6.07;93.18;97446.69;5065959;28;19943;-83
2023/03/13 03:53:02;;;;;;;;;;;;;;;6.09;92.97;97431.31;5069362;28;20292;-83
2023/03/13 03:55:27;;;;;;;;;;;;;;;6.14;93.34;97436.66;5072245;28;19928;-83
2023/03/13 03:57:52;;;;;;;;;;;;;;;6.12;93.63;97431.59;5070663;28;19924;-82
2023/03/13 04:00:20;;;;;;;;;;;;;;;6.06;93.79;97429.97;5076778;28;19956;-82
2023/03/13 04:02:46;;;;;;;;;;;;;;;6.10;93.05;97424.97;5071442;28;20341;-83
2023/03/13 04:05:11;;;;;;;;;;;;;;;6.05;94.00;97423.88;5068783;28;19960;-83
2023/03/13 04:07:36;;;;;;;;;;;;;;;6.07;92.95;97408.53;5068867;28;19916;-84
2023/03/13 04:10:02;;;;;;;;;;;;;;;6.08;94.18;97404.03;5066222;28;19956;-83
2023/03/13 04:12:27;;;;;;;;;;;;;;;5.97;94.61;97400.53;5068559;28;19920;-83
2023/03/13 04:14:52;;;;;;;;;;;;;;;6.07;94.91;97399.00;5071619;28;19924;-83
2023/03/13 04:17:18;;;;;;;;;;;;;;;6.00;95.14;97394.72;5073926;28;19927;-84
2023/03/13 04:19:43;;;;;;;;;;;;;;;6.05;94.17;97383.34;5051713;28;19976;-84
2023/03/13 04:22:08;;;;;;;;;;;;;;;6.02;94.62;97378.56;5071247;28;19920;-84
2023/03/13 04:24:34;;;;;;;;;;;;;;;5.98;95.20;97372.19;5071439;28;19944;-84
2023/03/13 04:27:00;;;;;;;;;;;;;;;6.00;95.73;97344.41;5072432;28;19966;-83
2023/03/13 04:29:25;;;;;;;;;;;;;;;5.98;95.47;97357.09;5073516;28;20396;-83
2023/03/13 04:31:51;;;;;;;;;;;;;;;6.03;96.11;97351.03;5071910;28;19916;-84
2023/03/13 04:34:16;;;;;;;;;;;;;;;6.02;95.47;97363.50;5069984;28;20037;-83
2023/03/13 04:36:41;;;;;;;;;;;;;;;5.99;96.38;97371.94;5069236;28;19916;-83
2023/03/13 04:39:06;;;;;;;;;;;;;;;6.00;96.46;97383.34;5073053;28;19923;-83
2023/03/13 04:41:32;;;;;;;;;;;;;;;6.02;96.68;97382.03;5075664;28;20038;-84
2023/03/13 04:43:57;;;;;;;;;;;;;;;5.93;96.62;97362.38;5072996;28;19950;-84
2023/03/13 04:46:22;;;;;;;;;;;;;;;5.93;96.59;97343.03;5073704;28;19928;-84
2023/03/13 04:48:47;;;;;;;;;;;;;;;6.02;97.48;97352.91;5076439;28;19920;-83
2023/03/13 04:51:13;;;;;;;;;;;;;;;6.02;97.42;97350.25;5056964;28;19936;-83
2023/03/13 04:53:38;;;;;;;;;;;;;;;5.99;97.64;97355.25;5074682;28;19924;-82
2023/03/13 04:56:03;;;;;;;;;;;;;;;6.04;98.33;97348.16;5070651;28;19916;-83
2023/03/13 04:58:28;;;;;;;;;;;;;;;6.06;98.39;97345.22;5055414;28;19936;-83
2023/03/13 05:00:59;;;;;;;;;;;;;;;6.09;98.37;97335.97;5073170;28;19932;-83
2023/03/13 05:03:25;;;;;;;;;;;;;;;6.13;98.29;97339.72;5054731;28;19928;-84
2023/03/13 05:05:50;;;;;;;;;;;;;;;6.15;98.67;97340.25;5055181;28;19935;-83
2023/03/13 05:08:15;;;;;;;;;;;;;;;6.17;98.67;97314.28;5073218;28;20446;-82
2023/03/13 05:10:41;;;;;;;;;;;;;;;6.21;98.77;97304.78;5071415;28;19977;-83
2023/03/13 05:13:06;;;;;;;;;;;;;;;6.25;99.14;97305.84;5074607;28;19928;-82
2023/03/13 05:15:31;;;;;;;;;;;;;;;6.30;99.03;97309.34;5070513;28;20261;-83
2023/03/13 05:17:57;;;;;;;;;;;;;;;6.33;99.32;97321.28;5072077;28;19978;-84
2023/03/13 05:20:22;;;;;;;;;;;;;;;6.29;98.97;97313.03;5049329;28;19921;-84
2023/03/13 05:22:48;;;;;;;;;;;;;;;6.32;99.54;97319.66;5071271;28;20300;-83
2023/03/13 05:25:14;;;;;;;;;;;;;;;6.33;99.73;97323.91;5074992;28;19929;-84
2023/03/13 05:27:39;;;;;;;;;;;;;;;6.35;99.18;97327.09;5075821;28;19924;-84
2023/03/13 05:30:04;;;;;;;;;;;;;;;6.35;99.81;97330.56;5072259;28;19985;-84
2023/03/13 05:32:30;;;;;;;;;;;;;;;6.36;100.00;97336.63;5071067;28;20213;-85
2023/03/13 05:34:55;;;;;;;;;;;;;;;6.36;100.00;97349.88;5070336;28;20363;-84
2023/03/13 05:37:20;;;;;;;;;;;;;;;6.40;100.00;97329.78;5069080;28;20367;-84
2023/03/13 05:39:45;;;;;;;;;;;;;;;6.39;99.70;97330.81;5052029;28;19985;-83
2023/03/13 05:42:10;;;;;;;;;;;;;;;6.44;100.00;97330.88;5073056;28;19936;-83
2023/03/13 05:44:36;;;;;;;;;;;;;;;6.41;99.83;97323.41;5067123;28;19920;-84
2023/03/13 05:47:01;;;;;;;;;;;;;;;6.46;100.00;97323.44;5046778;28;19976;-83
2023/03/13 05:49:26;;;;;;;;;;;;;;;6.49;99.98;97331.66;5051286;28;19928;-82
2023/03/13 05:51:51;;;;;;;;;;;;;;;6.47;99.68;97323.19;5052944;28;19925;-83
2023/03/13 05:54:17;;;;;;;;;;;;;;;6.50;99.57;97319.22;5069324;28;19920;-84
2023/03/13 05:56:43;;;;;;;;;;;;;;;6.49;99.26;97317.59;5052954;28;19929;-84
2023/03/13 05:59:09;;;;;;;;;;;;;;;6.55;99.27;97311.28;5068709;28;19928;-82
2023/03/13 06:01:34;;;;;;;;;;;;;;;6.52;99.75;97347.06;5071408;28;19923;-83
2023/03/13 06:03:59;;;;;;;;;;;;;;;6.57;99.25;97314.47;5057345;28;19963;-83
2023/03/13 06:06:24;;;;;;;;;;;;;;;6.52;99.54;97309.94;5071605;28;19920;-84
2023/03/13 06:08:50;;;;;;;;;;;;;;;6.56;99.74;97296.97;5066433;28;19927;-83
2023/03/13 06:11:16;;;;;;;;;;;;;;;6.62;99.01;97293.25;5074805;28;19950;-84
2023/03/13 06:13:41;;;;;;;;;;;;;;;6.59;99.04;97286.66;5074115;28;20335;-83
2023/03/13 06:16:06;;;;;;;;;;;;;;;6.57;99.42;97295.91;5056166;28;19929;-84
2023/03/13 06:18:32;;;;;;;;;;;;;;;6.65;99.16;97296.22;5058136;28;19920;-84
2023/03/13 06:20:58;;;;;;;;;;;;;;;6.66;98.86;97283.75;5072162;28;19935;-84
2023/03/13 06:23:23;;;;;;;;;;;;;;;6.64;99.54;97281.34;5074060;28;19917;-83
2023/03/13 06:25:48;;;;;;;;;;;;;;;6.67;100.00;97288.78;5070713;28;20269;-83
2023/03/13 06:28:14;;;;;;;;;;;;;;;6.71;99.49;97286.41;5072445;28;19917;-83
2023/03/13 06:30:40;;;;;;;;;;;;;;;6.68;99.44;97279.00;5069933;28;19921;-83
2023/03/13 06:33:05;;;;;;;;;;;;;;;6.65;99.71;97279.50;5067881;28;20300;-82
2023/03/13 06:35:30;;;;;;;;;;;;;;;6.69;100.00;97277.91;5075807;28;19956;-82
2023/03/13 06:37:56;;;;;;;;;;;;;;;6.71;99.09;97278.44;5076465;28;19924;-83
2023/03/13 06:40:21;;;;;;;;;;;;;;;6.75;99.19;97271.56;5064629;28;19962;-83
2023/03/13 06:42:46;;;;;;;;;;;;;;;6.76;99.82;97271.31;5073890;28;19920;-84
2023/03/13 06:45:11;;;;;;;;;;;;;;;6.75;99.60;97280.31;5074705;28;19924;-83
2023/03/13 06:47:37;;;;;;;;;;;;;;;6.77;99.51;97269.47;5055926;28;20493;-84
2023/03/13 06:50:03;;;;;;;;;;;;;;;6.80;99.85;97267.09;5070937;28;19921;-84
2023/03/13 06:52:28;;;;;;;;;;;;;;;6.84;99.73;97285.13;5066645;28;19928;-83
2023/03/13 06:54:54;;;;;;;;;;;;;;;6.88;100.00;97257.03;5071164;28;19932;-83
2023/03/13 06:57:19;;;;;;;;;;;;;;;6.87;98.98;97250.13;5072653;28;19931;-84
2023/03/13 06:59:44;;;;;;;;;;;;;;;6.92;100.00;97258.09;5069589;28;19920;-83
2023/03/13 07:02:10;;;;;;;;;;;;;;;6.92;99.99;97237.66;5068523;28;20017;-83
2023/03/13 07:04:36;;;;;;;;;;;;;;;6.94;100.00;97246.16;5068961;28;19916;-82
2023/03/13 07:07:01;;;;;;;;;;;;;;;6.89;100.00;97248.78;5051501;28;19921;-82
2023/03/13 07:09:26;;;;;;;;;;;;;;;6.94;100.00;97261.25;5072973;28;19923;-82
2023/03/13 07:11:53;;;;;;;;;;;;;;;6.96;100.00;97253.84;5059460;28;19935;-82
2023/03/13 07:14:18;;;;;;;;;;;;;;;6.97;100.00;97258.09;5061500;28;19925;-81
2023/03/13 07:16:44;;;;;;;;;;;;;;;7.00;100.00;97265.50;5042494;28;19943;-82
2023/03/13 07:19:10;;;;;;;;;;;;;;;7.00;100.00;97274.28;5057775;28;19924;-82
2023/03/13 07:21:35;;;;;;;;;;;;;;;7.06;100.00;97265.25;5057510;28;20356;-83
2023/03/13 07:24:00;;;;;;;;;;;;;;;7.10;100.00;97262.88;5062427;28;19978;-82
2023/03/13 07:26:26;;;;;;;;;;;;;;;7.15;100.00;97268.16;5058729;28;20899;-82
2023/03/13 07:28:51;;;;;;;;;;;;;;;7.18;100.00;97268.44;5061147;28;20779;-80
2023/03/13 07:31:18;;;;;;;;;;;;;;;7.20;100.00;97281.44;5061153;28;19955;-81
2023/03/13 07:33:43;;;;;;;;;;;;;;;7.23;100.00;97289.66;5063875;28;19924;-82
2023/03/13 07:36:09;;;;;;;;;;;;;;;7.28;100.00;97262.34;5065513;28;20460;-81
2023/03/13 07:38:35;;;;;;;;;;;;;;;7.26;100.00;97277.72;5063620;28;19928;-83
2023/03/13 07:41:00;;;;;;;;;;;;;;;7.32;99.71;97276.66;5060347;28;20387;-82
2023/03/13 07:43:25;;;;;;;;;;;;;;;7.30;100.00;97276.94;5060242;28;19944;-82
2023/03/13 07:45:52;;;;;;;;;;;;;;;7.33;100.00;97287.03;5058669;28;20011;-83
2023/03/13 07:48:18;;;;;;;;;;;;;;;7.34;100.00;97278.00;5060844;28;19969;-82
2023/03/13 07:50:43;;;;;;;;;;;;;;;7.37;100.00;97279.31;5062435;28;19928;-82
2023/03/13 07:53:08;;;;;;;;;;;;;;;7.41;100.00;97269.75;5060507;28;19924;-81
2023/03/13 07:55:33;;;;;;;;;;;;;;;7.43;100.00;97259.66;5062066;28;20387;-82
2023/03/13 07:57:58;;;;;;;;;;;;;;;7.42;100.00;97280.13;5044992;28;19925;-81
2023/03/13 08:00:24;;;;;;;;;;;;;;;7.47;100.00;97282.75;5058445;28;21040;-81
2023/03/13 08:02:49;;;;;;;;;;;;;;;7.49;100.00;97274.56;5061234;28;19925;-81
2023/03/13 08:05:14;;;;;;;;;;;;;;;7.47;100.00;97281.94;5060977;28;19971;-81
2023/03/13 08:07:42;;;;;;;;;;;;;;;7.56;100.00;97283.81;5059428;28;20379;-82
2023/03/13 08:10:07;;;;;;;;;;;;;;;7.54;100.00;97277.19;5045673;28;19925;-82
2023/03/13 08:12:33;;;;;;;;;;;;;;;7.60;100.00;97278.75;5080338;28;19928;-81
2023/03/13 08:14:58;;;;;;;;;;;;;;;7.58;100.00;97288.84;5079151;28;19967;-82
2023/03/13 08:17:23;;;;;;;;;;;;;;;7.55;100.00;97282.25;5071924;28;19924;-83
2023/03/13 08:19:48;;;;;;;;;;;;;;;7.56;100.00;97275.84;5071169;28;19928;-84
2023/03/13 08:22:13;;;;;;;;;;;;;;;7.59;100.00;97295.75;5070285;28;19920;-84
2023/03/13 08:24:39;;;;;;;;;;;;;;;7.65;100.00;97293.88;5071102;28;20011;-83
2023/03/13 08:27:04;;;;;;;;;;;;;;;7.62;100.00;97295.25;5075185;28;20364;-82
2023/03/13 08:29:29;;;;;;;;;;;;;;;7.61;100.00;97308.75;5072731;28;20342;-82
2023/03/13 08:31:54;;;;;;;;;;;;;;;7.64;100.00;97301.09;5076212;28;20284;-83
2023/03/13 08:34:20;;;;;;;;;;;;;;;7.65;100.00;97297.34;5068636;28;19971;-81
2023/03/13 08:36:45;;;;;;;;;;;;;;;7.65;100.00;97304.50;5073523;28;19920;-81
2023/03/13 08:39:12;;;;;;;;;;;;;;;7.65;100.00;97320.44;5074382;28;19966;-82
2023/03/13 08:41:39;;;;;;;;;;;;;;;7.67;100.00;97319.13;5069694;28;19917;-81
2023/03/13 08:44:05;;;;;;;;;;;;;;;7.69;100.00;97310.91;5073935;28;20564;-82
2023/03/13 08:46:31;;;;;;;;;;;;;;;7.72;100.00;97320.97;5062642;28;19916;-84
2023/03/13 08:48:57;;;;;;;;;;;;;;;7.72;100.00;97300.53;5063139;28;20408;-83
2023/03/13 08:51:23;;;;;;;;;;;;;;;7.72;100.00;97279.28;5067073;28;20003;-81
2023/03/13 08:53:49;;;;;;;;;;;;;;;7.71;100.00;97290.19;5066015;28;19946;-81
2023/03/13 08:56:16;;;;;;;;;;;;;;;7.72;100.00;97283.78;5074235;28;19924;-82
2023/03/13 08:58:41;;;;;;;;;;;;;;;7.75;100.00;97283.28;5071631;28;19923;-81
2023/03/13 09:01:08;;;;;;;;;;;;;;;7.81;100.00;97276.88;5048837;28;20279;-81
2023/03/13 09:03:33;;;;;;;;;;;;;;;7.81;100.00;97277.69;5071340;28;20722;-84
2023/03/13 09:05:59;;;;;;;;;;;;;;;7.90;100.00;97276.06;5072725;28;19936;-84
2023/03/13 09:08:25;;;;;;;;;;;;;;;7.92;100.00;97273.94;5066622;28;19984;-84
2023/03/13 09:11:00;;;;;;;;;;;;;;;7.97;100.00;97252.66;5070969;28;20312;-84
2023/03/13 09:13:26;;;;;;;;;;;;;;;8.10;100.00;97246.75;5070527;28;19928;-84
2023/03/13 09:15:54;;;;;;;;;;;;;;;8.17;100.00;97233.19;5084446;28;20388;-83
2023/03/13 09:18:20;;;;;;;;;;;;;;;8.18;100.00;97226.81;5072822;28;20002;-82
2023/03/13 09:20:45;;;;;;;;;;;;;;;8.28;100.00;97237.44;5054621;28;19971;-83
2023/03/13 09:23:10;;;;;;;;;;;;;;;8.34;100.00;97216.94;5052265;28;19921;-83
2023/03/13 09:25:36;;;;;;;;;;;;;;;8.47;100.00;97230.44;5053337;28;19973;-83
2023/03/13 09:28:02;;;;;;;;;;;;;;;8.64;100.00;97214.09;5073616;28;19921;-83
2023/03/13 09:30:27;;;;;;;;;;;;;;;8.61;99.43;97207.47;5073743;28;19924;-84
2023/03/13 09:32:52;;;;;;;;;;;;;;;8.69;100.00;97204.22;5071143;28;19924;-82
2023/03/13 09:35:17;;;;;;;;;;;;;;;8.82;99.19;97197.50;5051790;28;19947;-83
2023/03/13 09:37:43;;;;;;;;;;;;;;;8.78;98.54;97197.25;5069821;28;19967;-82
2023/03/13 09:40:12;;;;;;;;;;;;;;;8.81;97.87;97194.03;5067063;28;20365;-83
2023/03/13 09:42:49;;;;;;;;;;;;;;;8.88;97.95;97191.88;5088855;28;21123;-84
2023/03/13 09:45:32;;;;;;;;;;;;;;;8.97;98.12;97197.38;5066877;28;20430;-82
2023/03/13 09:48:01;;;;;;;;;;;;;;;9.16;97.84;97202.81;5070208;28;20414;-83
2023/03/13 09:50:30;;;;;;;;;;;;;;;9.29;96.90;97170.22;5072393;28;19916;-82
2023/03/13 09:52:59;;;;;;;;;;;;;;;9.29;96.39;97164.91;5072877;28;19971;-81
2023/03/13 09:55:30;;;;;;;;;;;;;;;9.34;96.29;97163.00;5075641;28;19916;-82
2023/03/13 09:57:58;;;;;;;;;;;;;;;9.40;96.25;97172.50;5072845;28;20296;-82
2023/03/13 10:00:27;;;;;;;;;;;;;;;9.40;95.66;97169.84;5064320;28;19917;-82
2023/03/13 10:02:56;;;;;;;;;;;;;;;9.48;96.01;97163.13;5068391;28;20284;-83
2023/03/13 10:05:25;;;;;;;;;;;;;;;9.48;95.79;97179.09;5063567;28;20297;-83
2023/03/13 10:07:55;;;;;;;;;;;;;;;9.59;95.85;97170.72;5070412;28;20628;-82
2023/03/13 10:10:31;;;;;;;;;;;;;;;9.59;95.74;97177.91;5072785;28;19916;-82
2023/03/13 10:13:00;;;;;;;;;;;;;;;9.55;95.91;97179.53;5091506;28;19917;-81
2023/03/13 10:15:41;;;;;;;;;;;;;;;9.55;95.57;97169.69;5069687;28;20450;-82
2023/03/13 10:18:12;;;;;;;;;;;;;;;9.51;95.33;97173.19;5074363;28;19916;-83
2023/03/13 10:20:39;;;;;;;;;;;;;;;9.49;95.21;97165.50;5064197;28;19932;-82
2023/03/13 10:23:19;;;;;;;;;;;;;;;9.44;95.21;97164.75;5072455;28;20376;-82
2023/03/13 10:25:45;;;;;;;;;;;;;;;9.43;94.62;97177.28;5072832;28;20307;-82
2023/03/13 10:28:21;;;;;;;;;;;;;;;9.51;94.70;97166.00;5074191;28;19925;-82
2023/03/13 10:30:48;;;;;;;;;;;;;;;9.56;94.81;97157.97;5072936;28;20015;-82
2023/03/13 10:33:19;;;;;;;;;;;;;;;9.54;94.34;97162.00;5071045;28;19933;-81
2023/03/13 10:35:45;;;;;;;;;;;;;;;9.63;94.16;97149.66;5066692;28;19916;-81
2023/03/13 10:38:12;;;;;;;;;;;;;;;9.64;94.16;97149.34;5072514;28;19939;-81
2023/03/13 10:40:37;;;;;;;;;;;;;;;9.66;94.48;97152.53;5065773;28;20051;-82
2023/03/13 10:43:03;;;;;;;;;;;;;;;9.60;94.33;97155.53;5066377;28;19963;-81
2023/03/13 10:45:31;;;;;;;;;;;;;;;9.66;94.03;97151.72;5068803;28;19917;-82
2023/03/13 10:47:59;;;;;;;;;;;;;;;9.69;93.89;97159.16;5069777;28;19917;-81
2023/03/13 10:50:25;;;;;;;;;;;;;;;9.64;94.34;97144.03;5059012;28;21005;-81
2023/03/13 10:52:51;;;;;;;;;;;;;;;9.72;94.33;97147.91;5066614;28;19959;-82
2023/03/13 10:55:21;;;;;;;;;;;;;;;9.74;93.92;97138.56;5047700;28;19921;-83
2023/03/13 10:58:13;;;;;;;;;;;;;;;9.88;93.87;97145.88;5065801;28;20006;-82
2023/03/13 11:00:39;;;;;;;;;;;;;;;9.92;93.59;97149.53;5061386;28;20380;-82
2023/03/13 11:03:26;;;;;;;;;;;;;;;10.00;93.28;97152.41;5066579;28;19934;-81
2023/03/13 11:05:59;;;;;;;;;;;;;;;10.08;93.31;97154.41;5065233;28;19963;-81
2023/03/13 11:08:26;;;;;;;;;;;;;;;10.13;93.13;97146.41;5068563;28;19946;-81
2023/03/13 11:10:58;;;;;;;;;;;;;;;10.13;93.16;97148.25;5067081;28;19916;-82
2023/03/13 11:13:36;;;;;;;;;;;;;;;10.18;92.99;97146.31;5067584;28;19927;-82
2023/03/13 11:16:15;;;;;;;;;;;;;;;10.14;92.93;97144.50;5069835;28;19928;-81
2023/03/13 11:18:47;;;;;;;;;;;;;;;10.18;92.85;97132.19;5067608;28;19965;-81
2023/03/13 11:21:18;;;;;;;;;;;;;;;10.28;93.06;97138.19;5059134;28;19920;-81
2023/03/13 11:23:53;;;;;;;;;;;;;;;10.38;92.41;97134.56;5060876;28;19940;-83
2023/03/13 11:26:24;;;;;;;;;;;;;;;10.44;91.81;97128.88;5065687;28;20019;-81
2023/03/13 11:29:08;;;;;;;;;;;;;;;10.59;91.35;97130.53;5088673;28;19916;-81
2023/03/13 11:31:36;;;;;;;;;;;;;;;10.69;91.59;97119.69;5067483;28;19943;-82
2023/03/13 11:34:17;;;;;;;;;;;;;;;10.92;91.02;97120.69;5068148;28;19950;-82
2023/03/13 11:36:51;;;;;;;;;;;;;;;10.87;90.72;97104.72;5065201;28;19928;-82
2023/03/13 11:39:42;;;;;;;;;;;;;;;10.95;90.88;97094.19;5065711;28;19917;-83
2023/03/13 11:42:07;;;;;;;;;;;;;;;11.16;90.65;97097.28;5067237;28;20380;-82
2023/03/13 11:44:53;;;;;;;;;;;;;;;11.12;89.92;97122.97;5070825;28;19992;-82
2023/03/13 11:47:24;;;;;;;;;;;;;;;11.18;90.31;97095.88;5060544;28;20434;-82
2023/03/13 11:49:58;;;;;;;;;;;;;;;11.19;89.85;97108.16;5066558;28;19925;-82
2023/03/13 11:52:30;;;;;;;;;;;;;;;11.20;90.39;97098.28;5067623;28;19951;-81
2023/03/13 11:55:13;;;;;;;;;;;;;;;11.31;90.50;97102.34;5088265;28;19984;-82
2023/03/13 11:57:57;;;;;;;;;;;;;;;11.09;90.08;97111.03;5074416;28;19916;-81
2023/03/13 12:00:25;;;;;;;;;;;;;;;11.11;90.55;97111.53;5069739;28;20003;-81
2023/03/13 12:02:58;;;;;;;;;;;;;;;11.08;91.03;97100.63;5072965;28;19920;-82
2023/03/13 12:05:24;;;;;;;;;;;;;;;10.99;90.43;97099.72;5071309;28;19916;-83
2023/03/13 12:07:53;;;;;;;;;;;;;;;11.04;90.49;97110.31;5069393;28;19931;-82
2023/03/13 12:10:38;;;;;;;;;;;;;;;11.14;90.96;97110.13;5067122;28;19974;-83
2023/03/13 12:13:10;;;;;;;;;;;;;;;11.14;90.49;97089.56;5071168;28;19956;-82
2023/03/13 12:15:40;;;;;;;;;;;;;;;11.13;90.92;97089.88;5075560;28;20334;-82
2023/03/13 12:18:18;;;;;;;;;;;;;;;11.23;90.46;97077.13;5067926;28;20372;-83
2023/03/13 12:20:48;;;;;;;;;;;;;;;11.24;90.31;97067.22;5068140;28;19925;-83
2023/03/13 12:23:26;;;;;;;;;;;;;;;11.18;90.39;97060.41;5071471;28;19916;-83
2023/03/13 12:25:54;;;;;;;;;;;;;;;11.20;90.38;97069.69;5072500;28;20372;-83
2023/03/13 12:28:25;;;;;;;;;;;;;;;11.30;90.38;97052.69;5071224;28;20269;-82
2023/03/13 12:31:00;;;;;;;;;;;;;;;11.47;90.13;97042.19;5077438;28;19931;-83
2023/03/13 12:33:28;;;;;;;;;;;;;;;11.71;89.38;97050.00;5075379;28;19998;-82
2023/03/13 12:36:06;;;;;;;;;;;;;;;11.82;88.74;97030.00;5066869;28;19916;-82
2023/03/13 12:38:36;;;;;;;;;;;;;;;11.64;88.91;97030.91;5068651;28;19924;-82
2023/03/13 12:41:19;;;;;;;;;;;;;;;11.54;88.82;97029.22;5067976;28;19916;-83
2023/03/13 12:43:46;;;;;;;;;;;;;;;11.56;89.00;97037.72;5069494;28;19928;-82
2023/03/13 12:46:11;;;;;;;;;;;;;;;11.57;89.39;97034.00;5069643;28;19956;-81
2023/03/13 12:48:51;;;;;;;;;;;;;;;11.50;89.06;97030.91;5071044;28;19938;-81
2023/03/13 12:51:35;;;;;;;;;;;;;;;11.54;89.63;97017.75;5065342;28;19916;-82
2023/03/13 12:54:33;;;;;;;;;;;;;;;11.38;89.58;97029.84;5069743;28;19931;-81